createdAt,value
2022-09-28T00:00:17.860Z,80.68
2022-09-28T00:02:51.046Z,79.91
2022-09-28T00:05:05.420Z,79.44
2022-09-28T00:07:18.756Z,78.96
2022-09-28T00:09:32.130Z,78.77
2022-09-28T00:11:47.421Z,78.72
2022-09-28T00:14:04.610Z,78.62
2022-09-28T00:16:20.922Z,78.47
2022-09-28T00:18:34.346Z,78.20
2022-09-28T00:20:47.786Z,78.17
2022-09-28T00:23:01.062Z,78.14
2022-09-28T00:25:15.412Z,78.23
2022-09-28T00:27:28.723Z,78.32
2022-09-28T00:29:43.524Z,77.96
2022-09-28T00:32:01.066Z,77.48
2022-09-28T00:34:14.457Z,77.34
2022-09-28T00:36:29.567Z,77.27
2022-09-28T00:38:43.106Z,77.06
2022-09-28T00:40:57.142Z,77.11
2022-09-28T00:43:24.078Z,77.23
2022-09-28T00:45:37.495Z,77.35
2022-09-28T00:47:54.504Z,77.60
2022-09-28T00:50:12.320Z,77.45
2022-09-28T00:52:29.600Z,77.66
2022-09-28T00:54:43.349Z,77.80
2022-09-28T00:56:57.037Z,77.76
2022-09-28T00:59:12.426Z,77.80
2022-09-28T01:01:25.875Z,77.87
2022-09-28T01:03:42.582Z,77.97
2022-09-28T01:05:58.809Z,77.99
2022-09-28T01:08:14.608Z,78.02
2022-09-28T01:10:29.176Z,78.16
2022-09-28T01:12:42.461Z,78.20
2022-09-28T01:14:57.010Z,78.27
2022-09-28T01:17:17.304Z,78.38
2022-09-28T01:20:07.259Z,78.66
2022-09-28T01:22:39.770Z,78.85
2022-09-28T01:24:59.709Z,79.30
2022-09-28T01:27:19.380Z,79.35
2022-09-28T01:29:45.782Z,79.57
2022-09-28T01:32:05.326Z,80.00
2022-09-28T01:34:23.927Z,80.25
2022-09-28T01:36:43.608Z,80.47
2022-09-28T01:39:03.157Z,80.66
2022-09-28T01:41:18.739Z,80.82
2022-09-28T01:43:35.382Z,81.05
2022-09-28T01:45:52.601Z,81.09
2022-09-28T01:48:10.554Z,81.16
2022-09-28T01:50:28.975Z,81.11
2022-09-28T01:52:49.204Z,81.02
2022-09-28T01:55:07.121Z,81.11
2022-09-28T01:57:25.125Z,81.24
2022-09-28T01:59:42.194Z,81.15
2022-09-28T02:01:58.896Z,81.17
2022-09-28T02:04:18.438Z,81.25
2022-09-28T02:06:43.590Z,81.23
2022-09-28T02:09:01.570Z,81.23
2022-09-28T02:11:24.308Z,81.25
2022-09-28T02:13:41.869Z,81.21
2022-09-28T02:16:01.286Z,81.23
2022-09-28T02:18:15.862Z,81.13
2022-09-28T02:20:30.247Z,81.07
2022-09-28T02:22:49.226Z,81.16
2022-09-28T02:25:06.010Z,81.10
2022-09-28T02:27:23.247Z,80.93
2022-09-28T02:29:36.430Z,80.92
2022-09-28T02:31:50.162Z,80.90
2022-09-28T02:34:03.726Z,80.85
2022-09-28T02:36:18.314Z,80.81
2022-09-28T02:38:31.758Z,80.66
2022-09-28T02:40:47.588Z,80.61
2022-09-28T02:43:12.337Z,80.48
2022-09-28T02:45:37.657Z,80.55
2022-09-28T02:48:06.895Z,80.52
2022-09-28T02:50:28.265Z,80.45
2022-09-28T02:53:00.046Z,80.41
2022-09-28T02:55:29.476Z,80.39
2022-09-28T02:58:04.777Z,80.37
2022-09-28T03:00:22.462Z,80.43
2022-09-28T03:02:43.288Z,80.37
2022-09-28T03:05:08.101Z,80.42
2022-09-28T03:07:27.067Z,80.30
2022-09-28T03:09:46.032Z,80.34
2022-09-28T03:12:02.589Z,80.32
2022-09-28T03:14:16.870Z,80.28
2022-09-28T03:16:39.336Z,80.24
2022-09-28T03:18:53.554Z,80.23
2022-09-28T03:21:07.343Z,80.27
2022-09-28T03:23:24.736Z,80.29
2022-09-28T03:25:39.434Z,80.28
2022-09-28T03:27:52.715Z,80.15
2022-09-28T03:30:06.359Z,80.19
2022-09-28T03:32:20.250Z,80.19
2022-09-28T03:34:33.639Z,80.23
2022-09-28T03:36:46.996Z,80.26
2022-09-28T03:39:00.773Z,80.27
2022-09-28T03:41:14.175Z,80.24
2022-09-28T03:43:29.451Z,80.17
2022-09-28T03:45:43.390Z,80.20
2022-09-28T03:47:56.720Z,80.11
2022-09-28T03:50:10.659Z,80.08
2022-09-28T03:52:24.320Z,80.06
2022-09-28T03:54:37.721Z,80.06
2022-09-28T03:56:51.443Z,79.99
2022-09-28T03:59:05.883Z,79.96
2022-09-28T04:01:19.826Z,79.91
2022-09-28T04:03:33.407Z,80.00
2022-09-28T04:05:54.278Z,79.98
2022-09-28T04:08:09.051Z,79.99
2022-09-28T04:10:22.651Z,79.89
2022-09-28T04:12:36.082Z,79.92
2022-09-28T04:14:50.507Z,79.89
2022-09-28T04:17:04.366Z,79.87
2022-09-28T04:19:18.511Z,79.89
2022-09-28T04:21:51.802Z,79.79
2022-09-28T04:24:05.274Z,79.85
2022-09-28T04:26:21.785Z,79.75
2022-09-28T04:28:51.588Z,79.74
2022-09-28T04:31:05.188Z,79.71
2022-09-28T04:33:18.612Z,79.75
2022-09-28T04:35:31.847Z,79.72
2022-09-28T04:37:45.017Z,79.77
2022-09-28T04:39:58.381Z,79.70
2022-09-28T04:42:13.100Z,79.65
2022-09-28T04:44:26.373Z,79.66
2022-09-28T04:46:44.546Z,79.68
2022-09-28T04:49:24.079Z,79.64
2022-09-28T04:51:43.506Z,79.62
2022-09-28T04:53:58.758Z,79.74
2022-09-28T04:56:14.359Z,79.77
2022-09-28T04:58:27.609Z,79.72
2022-09-28T05:00:41.481Z,79.70
2022-09-28T05:03:08.036Z,79.69
2022-09-28T05:05:52.277Z,79.79
2022-09-28T05:08:24.200Z,79.94
2022-09-28T05:10:38.167Z,79.93
2022-09-28T05:12:51.453Z,79.88
2022-09-28T05:15:04.715Z,79.72
2022-09-28T05:17:18.069Z,79.11
2022-09-28T05:19:54.349Z,78.83
2022-09-28T05:22:12.499Z,78.78
2022-09-28T05:24:28.119Z,78.79
2022-09-28T05:26:41.508Z,78.84
2022-09-28T05:28:56.115Z,78.94
2022-09-28T05:31:38.701Z,79.23
2022-09-28T05:34:03.687Z,79.16
2022-09-28T05:36:17.525Z,79.26
2022-09-28T05:38:31.016Z,79.10
2022-09-28T05:40:44.227Z,78.97
2022-09-28T05:43:01.793Z,78.99
2022-09-28T05:45:16.450Z,79.21
2022-09-28T05:47:31.250Z,79.51
2022-09-28T05:49:44.782Z,79.51
2022-09-28T05:51:58.422Z,79.68
2022-09-28T05:54:12.117Z,79.85
2022-09-28T05:56:29.424Z,79.86
2022-09-28T05:58:42.812Z,79.67
2022-09-28T06:01:00.896Z,79.55
2022-09-28T06:03:17.859Z,79.30
2022-09-28T06:05:31.376Z,79.08
2022-09-28T06:07:44.662Z,78.94
2022-09-28T06:09:58.311Z,78.97
2022-09-28T06:12:25.576Z,79.09
2022-09-28T06:14:45.509Z,79.07
2022-09-28T06:16:59.474Z,79.30
2022-09-28T06:19:13.993Z,79.54
2022-09-28T06:21:50.884Z,79.67
2022-09-28T06:24:04.237Z,79.86
2022-09-28T06:26:17.626Z,79.86
2022-09-28T06:28:31.567Z,79.74
2022-09-28T06:30:45.600Z,79.54
2022-09-28T06:33:03.840Z,79.58
2022-09-28T06:35:18.166Z,79.72
2022-09-28T06:37:31.480Z,79.75
2022-09-28T06:39:44.826Z,79.79
2022-09-28T06:41:58.009Z,79.98
2022-09-28T06:44:19.002Z,80.01
2022-09-28T06:46:50.905Z,80.16
2022-09-28T06:49:36.593Z,80.39
2022-09-28T06:52:05.063Z,80.51
2022-09-28T06:54:41.511Z,80.58
2022-09-28T06:57:08.074Z,81.11
2022-09-28T06:59:21.817Z,81.86
2022-09-28T07:01:35.557Z,82.12
2022-09-28T07:04:07.567Z,82.40
2022-09-28T07:06:58.727Z,82.79
2022-09-28T07:09:37.302Z,82.55
2022-09-28T07:12:14.811Z,82.37
2022-09-28T07:14:47.014Z,82.33
2022-09-28T07:17:13.790Z,82.37
2022-09-28T07:19:28.916Z,83.02
2022-09-28T07:21:42.180Z,83.66
2022-09-28T07:23:55.644Z,83.64
2022-09-28T07:26:12.067Z,83.13
2022-09-28T07:28:44.204Z,83.10
2022-09-28T07:31:16.890Z,83.44
2022-09-28T07:33:48.701Z,83.86
2022-09-28T07:36:22.115Z,84.47
2022-09-28T07:38:36.912Z,84.31
2022-09-28T07:41:06.769Z,84.24
2022-09-28T07:43:21.941Z,84.00
2022-09-28T07:45:39.435Z,83.66
2022-09-28T07:47:52.990Z,82.89
2022-09-28T07:50:24.632Z,82.32
2022-09-28T07:52:46.493Z,81.98
2022-09-28T07:55:12.149Z,82.04
2022-09-28T07:57:49.338Z,81.80
2022-09-28T08:00:13.219Z,81.70
2022-09-28T08:02:33.574Z,81.74
2022-09-28T08:04:46.827Z,82.10
2022-09-28T08:07:01.004Z,82.23
2022-09-28T08:09:14.972Z,82.58
2022-09-28T08:11:46.923Z,82.80
2022-09-28T08:14:20.711Z,83.19
2022-09-28T08:16:59.737Z,83.26
2022-09-28T08:19:54.970Z,83.21
2022-09-28T08:22:08.154Z,83.31
2022-09-28T08:24:22.140Z,83.43
2022-09-28T08:26:36.061Z,83.58
2022-09-28T08:28:49.711Z,83.87
2022-09-28T08:31:25.473Z,83.93
2022-09-28T08:33:56.949Z,84.15
2022-09-28T08:36:48.665Z,84.30
2022-09-28T08:39:24.861Z,84.64
2022-09-28T08:42:31.563Z,84.62
2022-09-28T08:45:11.355Z,84.57
2022-09-28T08:47:46.220Z,84.65
2022-09-28T08:50:27.424Z,84.77
2022-09-28T08:52:50.100Z,84.95
2022-09-28T08:55:32.362Z,84.99
2022-09-28T08:57:51.769Z,85.07
2022-09-28T09:00:11.560Z,85.26
2022-09-28T09:02:30.938Z,85.66
2022-09-28T09:04:57.171Z,86.25
2022-09-28T09:07:39.446Z,86.43
2022-09-28T09:10:06.263Z,87.00
2022-09-28T09:12:24.846Z,86.90
2022-09-28T09:15:00.318Z,87.20
2022-09-28T09:17:23.992Z,87.28
2022-09-28T09:20:09.844Z,87.43
2022-09-28T09:22:44.909Z,87.43
2022-09-28T09:25:06.853Z,87.35
2022-09-28T09:27:45.490Z,87.29
2022-09-28T09:30:09.493Z,87.29
2022-09-28T09:32:37.511Z,87.36
2022-09-28T09:35:10.099Z,87.35
2022-09-28T09:38:02.989Z,87.29
2022-09-28T09:40:52.803Z,87.28
2022-09-28T09:43:46.057Z,87.22
2022-09-28T09:46:40.669Z,87.31
2022-09-28T09:49:23.451Z,87.16
2022-09-28T09:51:44.007Z,87.09
2022-09-28T09:54:02.965Z,87.04
2022-09-28T09:56:21.579Z,86.94
2022-09-28T09:58:57.299Z,86.73
2022-09-28T10:01:21.044Z,86.67
2022-09-28T10:04:08.728Z,86.56
2022-09-28T10:06:29.664Z,86.54
2022-09-28T10:08:48.071Z,86.52
2022-09-28T10:11:13.934Z,86.40
2022-09-28T10:13:28.356Z,86.39
2022-09-28T10:15:44.087Z,86.28
2022-09-28T10:18:10.943Z,86.20
2022-09-28T10:20:44.752Z,86.10
2022-09-28T10:23:08.364Z,85.71
2022-09-28T10:25:22.512Z,85.63
2022-09-28T10:27:39.526Z,85.50
2022-09-28T10:29:57.863Z,85.27
2022-09-28T10:32:25.103Z,85.21
2022-09-28T10:34:41.699Z,85.11
2022-09-28T10:37:02.184Z,85.21
2022-09-28T10:39:43.666Z,85.26
2022-09-28T10:41:59.884Z,85.20
2022-09-28T10:44:21.954Z,85.12
2022-09-28T10:47:11.183Z,85.07
2022-09-28T10:49:25.777Z,85.00
2022-09-28T10:51:50.892Z,84.91
2022-09-28T10:54:09.089Z,84.76
2022-09-28T10:56:38.685Z,84.73
2022-09-28T10:58:54.227Z,84.51
2022-09-28T11:01:17.370Z,84.64
2022-09-28T11:03:32.443Z,84.84
2022-09-28T11:06:00.511Z,84.88
2022-09-28T11:08:24.893Z,84.60
2022-09-28T11:10:38.653Z,84.50
2022-09-28T11:13:00.292Z,84.84
2022-09-28T11:15:20.868Z,85.21
2022-09-28T11:17:39.888Z,85.34
2022-09-28T11:19:53.883Z,85.48
2022-09-28T11:22:23.448Z,85.16
2022-09-28T11:24:37.246Z,85.20
2022-09-28T11:26:54.617Z,85.32
2022-09-28T11:29:10.542Z,85.35
2022-09-28T11:31:35.659Z,85.57
2022-09-28T11:33:54.801Z,85.71
2022-09-28T11:36:38.123Z,85.82
2022-09-28T11:39:01.163Z,86.06
2022-09-28T11:41:53.542Z,86.26
2022-09-28T11:44:31.058Z,86.39
2022-09-28T11:47:12.068Z,86.68
2022-09-28T11:49:36.843Z,86.85
2022-09-28T11:51:53.087Z,86.87
2022-09-28T11:54:15.620Z,86.82
2022-09-28T11:56:39.473Z,87.04
2022-09-28T11:58:56.319Z,87.20
2022-09-28T12:01:24.755Z,87.06
2022-09-28T12:04:01.270Z,87.36
2022-09-28T12:06:19.733Z,87.58
2022-09-28T12:08:36.816Z,87.75
2022-09-28T12:10:56.679Z,87.76
2022-09-28T12:13:30.718Z,88.01
2022-09-28T12:18:30.371Z,88.93
2022-09-28T12:20:48.675Z,88.83
2022-09-28T12:23:11.750Z,88.56
2022-09-28T12:25:27.090Z,88.82
2022-09-28T12:27:45.558Z,89.01
2022-09-28T12:30:03.863Z,88.98
2022-09-28T12:32:27.807Z,89.03
2022-09-28T12:34:41.054Z,89.08
2022-09-28T12:37:04.512Z,89.29
2022-09-28T12:39:56.654Z,89.11
2022-09-28T12:42:30.200Z,89.29
2022-09-28T12:45:21.210Z,89.24
2022-09-28T12:47:57.463Z,89.57
2022-09-28T12:50:40.270Z,89.74
2022-09-28T12:53:10.526Z,89.87
2022-09-28T12:55:51.174Z,90.03
2022-09-28T12:58:10.222Z,90.25
2022-09-28T13:00:26.321Z,90.23
2022-09-28T13:02:57.295Z,90.23
2022-09-28T13:05:33.559Z,90.28
2022-09-28T13:07:55.184Z,90.56
2022-09-28T13:10:21.609Z,90.64
2022-09-28T13:12:42.835Z,90.89
2022-09-28T13:15:11.713Z,91.53
2022-09-28T13:17:37.554Z,91.88
2022-09-28T13:19:57.060Z,92.32
2022-09-28T13:22:25.628Z,92.85
2022-09-28T13:24:45.052Z,93.02
2022-09-28T13:27:00.635Z,93.32
2022-09-28T13:29:18.145Z,94.00
2022-09-28T13:31:36.061Z,94.21
2022-09-28T13:33:52.716Z,93.82
2022-09-28T13:36:06.286Z,93.59
2022-09-28T13:38:57.328Z,93.35
2022-09-28T13:41:23.720Z,93.11
2022-09-28T13:43:56.412Z,92.87
2022-09-28T13:46:24.065Z,92.65
2022-09-28T13:48:51.690Z,92.75
2022-09-28T13:51:32.135Z,92.99
2022-09-28T13:54:01.072Z,93.14
2022-09-28T13:56:29.558Z,93.16
2022-09-28T13:58:50.680Z,93.14
2022-09-28T14:01:10.465Z,93.20
2022-09-28T14:03:45.887Z,93.32
2022-09-28T14:06:24.766Z,93.69
2022-09-28T14:08:47.251Z,93.67
2022-09-28T14:11:01.515Z,93.73
2022-09-28T14:13:15.415Z,93.68
2022-09-28T14:15:46.593Z,93.76
2022-09-28T14:18:16.040Z,93.83
2022-09-28T14:20:34.531Z,93.81
2022-09-28T14:23:02.077Z,93.83
2022-09-28T14:25:21.017Z,93.82
2022-09-28T14:28:03.496Z,93.71
2022-09-28T14:30:26.944Z,93.81
2022-09-28T14:32:41.798Z,93.93
2022-09-28T14:35:03.524Z,93.85
2022-09-28T14:37:45.735Z,94.15
2022-09-28T14:40:16.433Z,94.17
2022-09-28T14:42:30.337Z,94.16
2022-09-28T14:45:37.108Z,94.29
2022-09-28T14:48:07.409Z,94.21
2022-09-28T14:50:30.514Z,94.41
2022-09-28T14:52:51.234Z,94.48
2022-09-28T14:55:04.641Z,94.50
2022-09-28T14:57:23.693Z,95.01
2022-09-28T14:59:44.610Z,94.84
2022-09-28T15:02:02.549Z,94.92
2022-09-28T15:04:18.096Z,94.97
2022-09-28T15:06:47.360Z,94.97
2022-09-28T15:09:00.704Z,95.04
2022-09-28T15:11:19.334Z,95.27
2022-09-28T15:13:33.742Z,95.19
2022-09-28T15:15:51.740Z,95.18
2022-09-28T15:18:34.519Z,95.15
2022-09-28T15:20:50.017Z,95.43
2022-09-28T15:23:03.930Z,95.51
2022-09-28T15:25:23.703Z,95.53
2022-09-28T15:27:43.321Z,95.89
2022-09-28T15:30:20.049Z,95.54
2022-09-28T15:32:33.638Z,95.67
2022-09-28T15:34:55.959Z,95.93
2022-09-28T15:37:12.617Z,96.04
2022-09-28T15:39:31.080Z,96.19
2022-09-28T15:41:45.928Z,96.47
2022-09-28T15:44:35.458Z,96.16
2022-09-28T15:46:53.161Z,96.29
2022-09-28T15:49:07.272Z,96.52
2022-09-28T15:51:21.314Z,96.59
2022-09-28T15:53:35.323Z,96.30
2022-09-28T15:55:53.386Z,95.88
2022-09-28T15:58:22.076Z,95.72
2022-09-28T16:00:36.169Z,95.83
2022-09-28T16:03:04.913Z,96.23
2022-09-28T16:05:44.286Z,96.17
2022-09-28T16:08:05.246Z,96.42
2022-09-28T16:10:38.798Z,96.41
2022-09-28T16:12:56.626Z,96.44
2022-09-28T16:15:16.116Z,96.40
2022-09-28T16:17:35.525Z,96.32
2022-09-28T16:19:50.691Z,96.03
2022-09-28T16:22:06.531Z,95.91
2022-09-28T16:24:31.771Z,95.85
2022-09-28T16:26:45.264Z,95.88
2022-09-28T16:29:01.313Z,96.09
2022-09-28T16:31:33.917Z,96.10
2022-09-28T16:33:55.528Z,96.37
2022-09-28T16:36:14.625Z,96.28
2022-09-28T16:38:28.113Z,96.24
2022-09-28T16:40:47.511Z,96.13
2022-09-28T16:43:04.501Z,96.14
2022-09-28T16:45:24.967Z,96.32
2022-09-28T16:47:38.604Z,96.37
2022-09-28T16:49:52.827Z,96.39
2022-09-28T16:52:06.083Z,96.29
2022-09-28T16:54:38.187Z,96.13
2022-09-28T16:56:51.494Z,96.17
2022-09-28T16:59:04.916Z,96.70
2022-09-28T17:01:19.037Z,96.66
2022-09-28T17:03:32.909Z,96.73
2022-09-28T17:05:46.577Z,96.49
2022-09-28T17:08:07.113Z,96.69
2022-09-28T17:10:27.612Z,96.80
2022-09-28T17:12:41.486Z,96.83
2022-09-28T17:14:55.206Z,97.06
2022-09-28T17:17:12.684Z,97.21
2022-09-28T17:19:32.078Z,97.33
2022-09-28T17:21:45.699Z,97.59
2022-09-28T17:23:59.041Z,97.82
2022-09-28T17:26:18.833Z,97.85
2022-09-28T17:28:34.921Z,97.96
2022-09-28T17:30:48.230Z,98.06
2022-09-28T17:33:02.879Z,98.56
2022-09-28T17:35:25.078Z,98.25
2022-09-28T17:37:38.889Z,97.29
2022-09-28T17:39:52.155Z,96.84
2022-09-28T17:42:05.436Z,97.02
2022-09-28T17:44:19.035Z,97.05
2022-09-28T17:46:37.247Z,97.42
2022-09-28T17:48:50.431Z,96.93
2022-09-28T17:51:03.750Z,96.08
2022-09-28T17:53:17.486Z,95.73
2022-09-28T17:55:33.027Z,95.89
2022-09-28T17:57:46.228Z,95.82
2022-09-28T17:59:59.542Z,95.53
2022-09-28T18:02:15.023Z,94.85
2022-09-28T18:04:50.922Z,94.74
2022-09-28T18:07:01.485Z,93.43
2022-09-28T18:09:17.380Z,92.98
2022-09-28T18:11:30.892Z,92.24
2022-09-28T18:13:44.791Z,91.92
2022-09-28T18:15:59.401Z,90.38
2022-09-28T18:18:14.143Z,89.46
2022-09-28T18:20:27.379Z,88.27
2022-09-28T18:22:40.527Z,88.66
2022-09-28T18:24:53.757Z,88.88
2022-09-28T18:27:07.024Z,88.73
2022-09-28T18:29:20.593Z,87.12
2022-09-28T18:31:33.865Z,86.96
2022-09-28T18:33:47.184Z,86.82
2022-09-28T18:36:00.625Z,85.76
2022-09-28T18:38:14.272Z,85.37
2022-09-28T18:40:27.555Z,85.64
2022-09-28T18:42:41.105Z,85.86
2022-09-28T18:44:54.319Z,84.25
2022-09-28T18:47:07.417Z,85.00
2022-09-28T18:49:21.024Z,83.19
2022-09-28T18:51:34.279Z,83.95
2022-09-28T18:53:47.643Z,83.93
2022-09-28T18:56:00.934Z,82.23
2022-09-28T18:58:15.259Z,82.03
2022-09-28T19:00:28.503Z,82.44
2022-09-28T19:02:42.105Z,80.58
2022-09-28T19:04:55.859Z,80.81
2022-09-28T19:07:09.341Z,78.45
2022-09-28T19:09:25.796Z,78.23
2022-09-28T19:11:39.045Z,78.70
2022-09-28T19:13:52.226Z,78.42
2022-09-28T19:16:10.058Z,78.43
2022-09-28T19:18:23.347Z,78.08
2022-09-28T19:20:38.141Z,78.35
2022-09-28T19:22:52.247Z,76.64
2022-09-28T19:25:05.521Z,76.99
2022-09-28T19:27:18.805Z,76.31
2022-09-28T19:29:32.289Z,76.40
2022-09-28T19:31:46.474Z,77.03
2022-09-28T19:34:00.334Z,77.62
2022-09-28T19:36:16.681Z,78.60
2022-09-28T19:38:31.059Z,79.75
2022-09-28T19:40:45.440Z,80.87
2022-09-28T19:42:58.708Z,82.10
2022-09-28T19:45:13.585Z,82.16
2022-09-28T19:47:26.878Z,82.23
2022-09-28T19:49:41.224Z,82.09
2022-09-28T19:54:35.682Z,82.86
2022-09-28T19:56:49.992Z,82.74
2022-09-28T19:59:03.655Z,82.59
2022-09-28T20:01:17.032Z,82.78
2022-09-28T20:03:30.329Z,81.85
2022-09-28T20:05:44.117Z,81.02
2022-09-28T20:07:57.524Z,81.46
2022-09-28T20:10:13.167Z,81.66
2022-09-28T20:12:26.408Z,82.00
2022-09-28T20:14:40.425Z,82.21
2022-09-28T20:16:54.060Z,81.50
2022-09-28T20:19:08.684Z,81.44
2022-09-28T20:21:26.453Z,79.93
2022-09-28T20:23:40.183Z,79.61
2022-09-28T20:25:58.339Z,79.45
2022-09-28T20:28:11.956Z,79.02
2022-09-28T20:30:25.552Z,78.79
2022-09-28T20:32:39.985Z,78.71
2022-09-28T20:34:53.382Z,78.76
2022-09-28T20:37:06.637Z,78.45
2022-09-28T20:39:20.145Z,78.42
2022-09-28T20:41:35.961Z,77.93
2022-09-28T20:43:49.792Z,78.16
2022-09-28T20:46:04.238Z,78.41
2022-09-28T20:48:17.561Z,78.50
2022-09-28T20:50:30.930Z,78.12
2022-09-28T20:52:44.163Z,77.90
2022-09-28T20:54:57.408Z,77.59
2022-09-28T20:57:18.607Z,77.47
2022-09-28T20:59:32.428Z,77.60
2022-09-28T21:01:46.080Z,77.46
2022-09-28T21:04:01.706Z,77.75
2022-09-28T21:06:15.467Z,78.08
2022-09-28T21:08:29.532Z,78.16
2022-09-28T21:10:46.151Z,78.26
2022-09-28T21:12:59.382Z,78.51
2022-09-28T21:15:14.421Z,79.27
2022-09-28T21:17:27.571Z,79.58
2022-09-28T21:19:41.047Z,80.03
2022-09-28T21:21:54.734Z,80.13
2022-09-28T21:24:08.417Z,80.89
2022-09-28T21:26:27.493Z,81.06
2022-09-28T21:28:41.400Z,81.53
2022-09-28T21:30:57.692Z,82.01
2022-09-28T21:33:11.363Z,82.31
2022-09-28T21:35:24.762Z,82.55
2022-09-28T21:37:37.911Z,82.46
2022-09-28T21:39:51.069Z,82.84
2022-09-28T21:42:04.245Z,82.74
2022-09-28T21:44:17.888Z,82.83
2022-09-28T21:46:35.293Z,83.28
2022-09-28T21:48:49.260Z,83.61
2022-09-28T21:51:04.413Z,83.95
2022-09-28T21:53:17.633Z,84.40
2022-09-28T21:55:31.119Z,85.30
2022-09-28T21:57:44.369Z,85.67
2022-09-28T21:59:57.492Z,85.76
2022-09-28T22:02:11.545Z,86.06
2022-09-28T22:04:24.847Z,85.97
2022-09-28T22:06:38.546Z,86.43
2022-09-28T22:08:53.289Z,86.55
2022-09-28T22:11:08.454Z,86.91
2022-09-28T22:13:21.582Z,87.18
2022-09-28T22:15:35.036Z,87.66
2022-09-28T22:17:48.426Z,87.76
2022-09-28T22:20:01.974Z,88.28
2022-09-28T22:22:15.249Z,88.96
2022-09-28T22:24:28.789Z,89.45
2022-09-28T22:26:42.760Z,89.86
2022-09-28T22:28:58.330Z,89.91
2022-09-28T22:31:11.778Z,89.94
2022-09-28T22:33:25.160Z,89.89
2022-09-28T22:35:38.646Z,89.88
2022-09-28T22:37:52.056Z,89.49
2022-09-28T22:40:05.701Z,89.12
2022-09-28T22:42:19.286Z,89.03
2022-09-28T22:44:32.584Z,88.74
2022-09-28T22:46:45.937Z,88.53
2022-09-28T22:49:00.880Z,88.18
2022-09-28T22:51:14.345Z,87.94
2022-09-28T22:53:27.778Z,87.90
2022-09-28T22:55:41.396Z,88.31
2022-09-28T22:57:54.572Z,88.25
2022-09-28T23:00:08.451Z,88.24
2022-09-28T23:02:21.559Z,88.41
2022-09-28T23:04:34.724Z,88.24
2022-09-28T23:06:47.903Z,88.10
2022-09-28T23:09:01.073Z,88.13
2022-09-28T23:11:15.229Z,87.68
2022-09-28T23:13:28.576Z,87.94
2022-09-28T23:15:41.965Z,87.79
2022-09-28T23:17:56.757Z,88.10
2022-09-28T23:20:12.026Z,88.07
2022-09-28T23:22:25.243Z,87.83
2022-09-28T23:24:38.789Z,87.72
2022-09-28T23:26:52.065Z,87.33
2022-09-28T23:29:05.510Z,87.04
2022-09-28T23:31:21.826Z,86.34
2022-09-28T23:33:35.540Z,86.30
2022-09-28T23:35:49.485Z,85.98
2022-09-28T23:38:02.721Z,85.16
2022-09-28T23:40:17.586Z,84.96
2022-09-28T23:42:31.372Z,85.23
2022-09-28T23:44:44.587Z,84.94
2022-09-28T23:46:58.235Z,84.66
2022-09-28T23:49:11.667Z,83.63
2022-09-28T23:51:25.045Z,84.14
2022-09-28T23:53:38.479Z,84.12
2022-09-28T23:55:51.788Z,84.10
2022-09-28T23:58:05.190Z,84.10
